createdAt,value
2022-07-28T00:02:32.588Z,21.40
2022-07-28T00:07:35.193Z,21.40
2022-07-28T00:12:38.162Z,21.40
2022-07-28T00:17:40.561Z,21.40
2022-07-28T00:22:44.853Z,21.40
2022-07-28T00:27:47.360Z,21.40
2022-07-28T00:32:49.857Z,21.40
2022-07-28T00:37:52.318Z,21.40
2022-07-28T00:42:54.762Z,21.30
2022-07-28T00:47:57.638Z,21.30
2022-07-28T00:53:01.021Z,21.30
2022-07-28T00:58:03.464Z,21.30
2022-07-28T01:03:07.278Z,21.30
2022-07-28T01:08:33.927Z,21.30
2022-07-28T01:13:59.531Z,21.30
2022-07-28T01:19:15.935Z,21.30
2022-07-28T01:24:52.667Z,21.30
2022-07-28T01:30:02.959Z,21.30
2022-07-28T01:35:23.620Z,21.30
2022-07-28T01:40:29.634Z,21.30
2022-07-28T01:45:33.880Z,21.20
2022-07-28T01:50:37.633Z,21.20
2022-07-28T01:55:43.342Z,21.20
2022-07-28T02:00:49.725Z,21.30
2022-07-28T02:05:55.801Z,21.20
2022-07-28T02:11:18.724Z,21.20
2022-07-28T02:16:25.047Z,21.20
2022-07-28T02:21:30.630Z,21.20
2022-07-28T02:26:36.850Z,21.20
2022-07-28T02:31:50.598Z,21.20
2022-07-28T02:37:03.410Z,21.20
2022-07-28T02:42:13.270Z,21.20
2022-07-28T02:47:21.499Z,21.20
2022-07-28T02:52:29.117Z,21.20
2022-07-28T02:57:32.219Z,21.20
2022-07-28T03:02:36.911Z,21.20
2022-07-28T03:07:50.431Z,21.20
2022-07-28T03:12:55.318Z,21.20
2022-07-28T03:17:58.006Z,21.20
2022-07-28T03:23:00.525Z,21.20
2022-07-28T03:28:06.061Z,21.20
2022-07-28T03:33:08.710Z,21.20
2022-07-28T03:38:18.824Z,21.20
2022-07-28T03:43:25.080Z,21.20
2022-07-28T03:48:32.973Z,21.20
2022-07-28T03:53:35.782Z,21.20
2022-07-28T03:58:38.323Z,21.20
2022-07-28T04:03:43.701Z,21.30
2022-07-28T04:08:46.862Z,21.20
2022-07-28T04:13:49.617Z,21.20
2022-07-28T04:18:52.064Z,21.20
2022-07-28T04:23:59.829Z,21.20
2022-07-28T04:29:04.480Z,21.20
2022-07-28T04:34:06.919Z,21.20
2022-07-28T04:39:11.586Z,21.30
2022-07-28T04:44:14.336Z,21.30
2022-07-28T04:49:17.321Z,21.30
2022-07-28T04:54:24.547Z,21.30
2022-07-28T04:59:28.980Z,21.30
2022-07-28T05:04:33.897Z,21.30
2022-07-28T05:09:37.721Z,21.30
2022-07-28T05:14:40.268Z,21.30
2022-07-28T05:19:42.918Z,21.30
2022-07-28T05:24:45.367Z,21.30
2022-07-28T05:29:48.176Z,21.40
2022-07-28T05:34:50.765Z,21.40
2022-07-28T05:39:53.227Z,21.40
2022-07-28T05:44:55.819Z,21.40
2022-07-28T05:50:02.098Z,21.40
2022-07-28T05:55:06.602Z,21.40
2022-07-28T06:00:12.422Z,21.40
2022-07-28T06:05:17.378Z,21.10
2022-07-28T06:10:21.790Z,20.40
2022-07-28T06:15:26.345Z,20.90
2022-07-28T06:20:28.972Z,20.80
2022-07-28T06:25:32.472Z,20.60
2022-07-28T06:30:35.077Z,21.00
2022-07-28T06:35:46.491Z,21.20
2022-07-28T06:40:53.660Z,20.70
2022-07-28T06:45:56.182Z,20.90
2022-07-28T06:50:59.923Z,21.20
2022-07-28T06:56:06.424Z,21.10
2022-07-28T07:01:10.102Z,21.10
2022-07-28T07:06:12.573Z,21.30
2022-07-28T07:11:15.062Z,21.20
2022-07-28T07:16:17.612Z,21.20
2022-07-28T07:21:20.856Z,21.40
2022-07-28T07:26:25.477Z,21.10
2022-07-28T07:31:28.071Z,21.50
2022-07-28T07:36:30.966Z,21.50
2022-07-28T07:41:33.560Z,21.60
2022-07-28T07:46:39.748Z,21.70
2022-07-28T07:51:42.369Z,21.00
2022-07-28T07:56:44.802Z,21.60
2022-07-28T08:01:50.828Z,21.60
2022-07-28T08:06:53.619Z,21.60
2022-07-28T08:11:56.122Z,21.60
2022-07-28T08:16:59.679Z,21.80
2022-07-28T08:22:02.532Z,21.70
2022-07-28T08:27:05.347Z,21.90
2022-07-28T08:32:08.161Z,21.70
2022-07-28T08:37:10.584Z,21.50
2022-07-28T08:42:18.101Z,21.50
2022-07-28T08:47:21.433Z,21.80
2022-07-28T08:52:28.433Z,22.00
2022-07-28T08:57:40.152Z,22.00
2022-07-28T09:02:46.839Z,22.10
2022-07-28T09:07:55.807Z,22.10
2022-07-28T09:12:58.435Z,22.00
2022-07-28T09:18:01.768Z,22.00
2022-07-28T09:23:42.215Z,22.10
2022-07-28T09:28:29.281Z,22.10
2022-07-28T09:33:42.990Z,22.20
2022-07-28T09:38:47.151Z,22.10
2022-07-28T09:43:54.851Z,22.10
2022-07-28T09:49:02.350Z,22.10
2022-07-28T09:54:10.746Z,22.10
2022-07-28T09:59:15.050Z,22.20
2022-07-28T10:04:36.659Z,22.30
2022-07-28T10:09:39.378Z,22.30
2022-07-28T10:14:42.331Z,22.30
2022-07-28T10:19:44.783Z,22.20
2022-07-28T10:24:50.178Z,22.40
2022-07-28T10:30:00.214Z,22.20
2022-07-28T10:35:12.473Z,22.40
2022-07-28T10:40:18.416Z,22.60
2022-07-28T10:45:21.565Z,22.60
2022-07-28T10:50:25.014Z,22.60
2022-07-28T10:55:33.249Z,22.60
2022-07-28T11:00:55.387Z,22.80
2022-07-28T11:06:19.806Z,22.90
2022-07-28T11:11:50.048Z,22.70
2022-07-28T11:17:01.830Z,23.10
2022-07-28T11:22:19.289Z,23.20
2022-07-28T11:27:49.769Z,23.20
2022-07-28T11:32:55.495Z,22.80
2022-07-28T11:38:01.143Z,23.00
2022-07-28T11:43:37.556Z,23.20
2022-07-28T11:48:44.805Z,23.20
2022-07-28T11:53:55.610Z,23.20
2022-07-28T11:59:00.722Z,23.40
2022-07-28T12:04:13.530Z,23.30
2022-07-28T12:09:23.260Z,23.40
2022-07-28T12:14:30.122Z,23.20
2022-07-28T12:19:32.971Z,23.20
2022-07-28T12:24:45.562Z,23.30
2022-07-28T12:30:02.747Z,23.30
2022-07-28T12:35:05.653Z,23.20
2022-07-28T12:40:10.691Z,23.30
2022-07-28T12:45:13.666Z,23.10
2022-07-28T12:50:18.304Z,22.90
2022-07-28T12:55:27.176Z,23.10
2022-07-28T13:00:33.543Z,23.50
2022-07-28T13:05:57.130Z,23.40
2022-07-28T13:10:59.582Z,23.40
2022-07-28T13:16:18.838Z,23.60
2022-07-28T13:21:58.816Z,23.50
2022-07-28T13:27:04.052Z,23.80
2022-07-28T13:32:07.002Z,23.60
2022-07-28T13:37:10.011Z,23.60
2022-07-28T13:42:13.286Z,23.50
2022-07-28T13:47:16.628Z,23.40
2022-07-28T13:52:32.692Z,23.40
2022-07-28T13:57:37.483Z,23.50
2022-07-28T14:02:46.037Z,23.50
2022-07-28T14:07:49.454Z,23.50
2022-07-28T14:12:51.954Z,23.80
2022-07-28T14:17:54.510Z,23.90
2022-07-28T14:22:58.346Z,23.80
2022-07-28T14:28:00.900Z,23.70
2022-07-28T14:33:06.296Z,23.70
2022-07-28T14:43:32.617Z,23.70
2022-07-28T14:48:35.098Z,23.60
2022-07-28T14:53:40.045Z,23.70
2022-07-28T14:58:52.685Z,23.60
2022-07-28T15:03:55.182Z,23.70
2022-07-28T15:08:58.564Z,23.60
2022-07-28T15:14:01.004Z,23.80
2022-07-28T15:19:03.622Z,23.70
2022-07-28T15:24:07.555Z,23.70
2022-07-28T15:29:10.074Z,23.80
2022-07-28T15:34:14.132Z,23.80
2022-07-28T15:39:17.084Z,23.60
2022-07-28T15:44:25.968Z,23.70
2022-07-28T15:49:28.782Z,23.70
2022-07-28T15:54:31.429Z,23.70
2022-07-28T15:59:49.527Z,23.80
2022-07-28T16:04:53.991Z,23.70
2022-07-28T16:09:57.178Z,23.80
2022-07-28T16:14:59.814Z,23.80
2022-07-28T16:20:03.088Z,23.80
2022-07-28T16:25:06.526Z,23.70
2022-07-28T16:30:11.468Z,23.70
2022-07-28T16:35:17.042Z,23.80
2022-07-28T16:40:20.286Z,23.80
2022-07-28T16:45:22.966Z,23.70
2022-07-28T16:50:33.813Z,23.70
2022-07-28T16:55:36.537Z,23.70
2022-07-28T17:00:38.984Z,23.70
2022-07-28T17:05:41.482Z,23.70
2022-07-28T17:10:45.740Z,23.70
2022-07-28T17:15:48.336Z,23.70
2022-07-28T17:20:51.076Z,23.70
2022-07-28T17:26:45.684Z,23.60
2022-07-28T17:31:16.198Z,23.60
2022-07-28T17:36:19.067Z,23.50
2022-07-28T17:41:21.923Z,23.40
2022-07-28T17:46:26.651Z,23.40
2022-07-28T17:51:30.804Z,23.30
2022-07-28T17:56:33.454Z,23.10
2022-07-28T18:01:38.962Z,23.00
2022-07-28T18:06:44.679Z,22.90
2022-07-28T18:11:57.585Z,22.70
2022-07-28T18:17:01.139Z,22.60
2022-07-28T18:22:03.664Z,22.40
2022-07-28T18:27:06.160Z,22.40
2022-07-28T18:32:10.111Z,22.30
2022-07-28T18:37:13.142Z,22.30
2022-07-28T18:42:16.117Z,22.20
2022-07-28T18:47:18.555Z,22.10
2022-07-28T18:52:21.002Z,22.10
2022-07-28T18:57:23.764Z,22.00
2022-07-28T19:02:26.332Z,22.00
2022-07-28T19:07:28.962Z,22.00
2022-07-28T19:12:31.538Z,22.00
2022-07-28T19:17:34.270Z,22.00
2022-07-28T19:22:36.694Z,21.90
2022-07-28T19:27:39.516Z,21.80
2022-07-28T19:32:41.998Z,21.80
2022-07-28T19:37:44.929Z,21.80
2022-07-28T19:42:48.657Z,21.70
2022-07-28T19:47:51.272Z,21.70
2022-07-28T19:52:53.923Z,21.70
2022-07-28T19:58:01.932Z,21.70
2022-07-28T20:03:13.564Z,21.60
2022-07-28T20:08:28.797Z,21.60
2022-07-28T20:13:31.414Z,21.60
2022-07-28T20:18:33.923Z,21.60
2022-07-28T20:23:38.629Z,21.60
2022-07-28T20:28:41.235Z,21.60
2022-07-28T20:33:43.752Z,21.60
2022-07-28T20:38:46.412Z,21.60
2022-07-28T20:44:11.383Z,21.60
2022-07-28T20:49:12.025Z,21.50
2022-07-28T20:54:15.241Z,21.50
2022-07-28T20:59:18.236Z,21.50
2022-07-28T21:04:20.806Z,21.50
2022-07-28T21:09:27.172Z,21.50
2022-07-28T21:14:29.856Z,21.40
2022-07-28T21:19:32.582Z,21.40
2022-07-28T21:24:35.175Z,21.50
2022-07-28T21:29:38.312Z,21.40
2022-07-28T21:34:40.876Z,21.40
2022-07-28T21:39:43.532Z,21.40
2022-07-28T21:44:47.555Z,21.40
2022-07-28T21:49:49.987Z,21.40
2022-07-28T21:54:52.677Z,21.40
2022-07-28T21:59:56.103Z,21.40
2022-07-28T22:04:58.712Z,21.40
2022-07-28T22:10:01.401Z,21.40
2022-07-28T22:15:04.556Z,21.30
2022-07-28T22:20:08.511Z,21.30
2022-07-28T22:25:10.948Z,21.30
2022-07-28T22:30:13.569Z,21.30
2022-07-28T22:35:16.409Z,21.30
2022-07-28T22:40:19.162Z,21.30
2022-07-28T22:45:49.756Z,21.30
2022-07-28T22:50:44.641Z,21.20
2022-07-28T23:01:06.800Z,21.20
2022-07-28T23:06:09.791Z,21.30
2022-07-28T23:11:12.236Z,21.20
2022-07-28T23:16:16.261Z,21.20
2022-07-28T23:21:18.658Z,21.20
2022-07-28T23:26:21.125Z,21.20
2022-07-28T23:31:23.838Z,21.20
2022-07-28T23:36:27.770Z,21.20
2022-07-28T23:41:30.552Z,21.20
2022-07-28T23:46:33.144Z,21.20
2022-07-28T23:51:47.888Z,21.20
2022-07-28T23:56:52.526Z,21.20
